createdAt,value
2023-05-14T00:01:21.024Z,99.90
2023-05-14T00:03:49.011Z,99.90
2023-05-14T00:06:17.031Z,99.90
2023-05-14T00:08:45.005Z,99.90
2023-05-14T00:11:14.207Z,99.90
2023-05-14T00:13:42.058Z,99.90
2023-05-14T00:16:10.026Z,99.90
2023-05-14T00:18:38.098Z,99.90
2023-05-14T00:21:06.104Z,99.90
2023-05-14T00:23:34.042Z,99.90
2023-05-14T00:26:01.901Z,99.90
2023-05-14T00:28:31.093Z,99.90
2023-05-14T00:30:59.035Z,99.90
2023-05-14T00:33:26.883Z,99.90
2023-05-14T00:35:54.794Z,99.90
2023-05-14T00:38:24.247Z,99.90
2023-05-14T00:40:52.151Z,99.90
2023-05-14T00:43:20.952Z,99.90
2023-05-14T00:45:51.482Z,99.90
2023-05-14T00:48:20.498Z,99.90
2023-05-14T00:50:50.467Z,99.90
2023-05-14T00:53:19.108Z,99.90
2023-05-14T00:55:48.033Z,99.90
2023-05-14T00:58:15.945Z,99.90
2023-05-14T01:00:43.910Z,99.90
2023-05-14T01:03:13.296Z,99.90
2023-05-14T01:05:48.574Z,99.90
2023-05-14T01:08:33.578Z,99.90
2023-05-14T01:11:07.844Z,99.90
2023-05-14T01:13:43.448Z,99.90
2023-05-14T01:16:14.703Z,99.90
2023-05-14T01:18:46.292Z,99.90
2023-05-14T01:21:34.089Z,99.90
2023-05-14T01:24:01.938Z,99.90
2023-05-14T01:26:31.311Z,99.90
2023-05-14T01:29:04.903Z,99.90
2023-05-14T01:31:35.954Z,99.90
2023-05-14T01:34:06.584Z,99.90
2023-05-14T01:36:36.954Z,99.90
2023-05-14T01:39:05.212Z,99.90
2023-05-14T01:41:33.825Z,99.90
2023-05-14T01:44:01.842Z,99.90
2023-05-14T01:46:32.861Z,99.90
2023-05-14T01:49:00.889Z,99.90
2023-05-14T01:51:28.794Z,99.90
2023-05-14T01:53:58.031Z,99.90
2023-05-14T01:56:27.036Z,99.90
2023-05-14T01:58:55.584Z,99.90
2023-05-14T02:01:23.771Z,99.90
2023-05-14T02:03:51.743Z,99.90
2023-05-14T02:06:19.647Z,99.90
2023-05-14T02:08:47.518Z,99.90
2023-05-14T02:11:16.729Z,99.90
2023-05-14T02:13:44.684Z,99.90
2023-05-14T02:16:12.607Z,99.90
2023-05-14T02:18:40.516Z,99.90
2023-05-14T02:21:08.367Z,99.90
2023-05-14T02:23:41.690Z,99.90
2023-05-14T02:26:10.614Z,99.90
2023-05-14T02:28:39.833Z,99.90
2023-05-14T02:31:07.820Z,99.90
2023-05-14T02:33:35.864Z,99.90
2023-05-14T02:36:03.879Z,99.90
2023-05-14T02:38:31.690Z,99.90
2023-05-14T02:40:59.511Z,99.90
2023-05-14T02:43:27.481Z,99.90
2023-05-14T02:45:56.793Z,99.90
2023-05-14T02:48:24.653Z,99.90
2023-05-14T02:50:52.535Z,99.90
2023-05-14T02:53:20.430Z,99.90
2023-05-14T02:55:48.279Z,99.90
2023-05-14T02:58:16.174Z,99.90
2023-05-14T03:00:44.099Z,99.90
2023-05-14T03:03:13.741Z,99.90
2023-05-14T03:05:41.953Z,99.90
2023-05-14T03:08:09.777Z,99.90
2023-05-14T03:10:37.687Z,99.90
2023-05-14T03:13:05.614Z,99.90
2023-05-14T03:15:33.459Z,99.90
2023-05-14T03:18:01.363Z,99.90
2023-05-14T03:20:30.635Z,99.90
2023-05-14T03:22:58.574Z,99.90
2023-05-14T03:25:26.534Z,99.90
2023-05-14T03:27:54.393Z,99.90
2023-05-14T03:30:22.551Z,99.90
2023-05-14T03:32:50.881Z,99.90
2023-05-14T03:35:18.962Z,99.90
2023-05-14T03:37:48.124Z,99.90
2023-05-14T03:40:16.094Z,99.90
2023-05-14T03:42:44.065Z,99.90
2023-05-14T03:45:11.969Z,99.90
2023-05-14T03:47:39.798Z,99.90
2023-05-14T03:50:09.169Z,99.90
2023-05-14T03:52:37.174Z,99.90
2023-05-14T03:55:07.250Z,99.90
2023-05-14T03:57:35.180Z,99.90
2023-05-14T04:00:03.295Z,99.90
2023-05-14T04:02:31.284Z,99.90
2023-05-14T04:04:59.166Z,99.90
2023-05-14T04:07:27.122Z,99.90
2023-05-14T04:09:55.048Z,99.90
2023-05-14T04:12:24.230Z,99.90
2023-05-14T04:14:52.067Z,99.90
2023-05-14T04:17:19.986Z,99.90
2023-05-14T04:19:47.787Z,99.90
2023-05-14T04:22:15.895Z,99.90
2023-05-14T04:24:43.734Z,99.90
2023-05-14T04:27:11.547Z,99.90
2023-05-14T04:29:40.801Z,99.90
2023-05-14T04:32:09.214Z,99.90
2023-05-14T04:34:37.229Z,99.90
2023-05-14T04:37:05.359Z,99.90
2023-05-14T04:39:33.367Z,99.90
2023-05-14T04:42:01.241Z,99.90
2023-05-14T04:44:29.101Z,99.90
2023-05-14T04:46:58.264Z,99.90
2023-05-14T04:49:26.176Z,99.90
2023-05-14T04:51:54.108Z,99.90
2023-05-14T04:54:22.034Z,99.90
2023-05-14T04:56:51.097Z,99.90
2023-05-14T04:59:18.954Z,99.90
2023-05-14T05:01:46.822Z,99.90
2023-05-14T05:04:16.197Z,99.90
2023-05-14T05:06:44.250Z,99.90
2023-05-14T05:09:12.417Z,99.90
2023-05-14T05:11:40.364Z,99.90
2023-05-14T05:14:08.305Z,99.90
2023-05-14T05:16:36.471Z,99.90
2023-05-14T05:19:04.624Z,99.90
2023-05-14T05:21:33.965Z,99.90
2023-05-14T05:24:01.876Z,99.90
2023-05-14T05:26:29.772Z,99.90
2023-05-14T05:28:57.663Z,99.90
2023-05-14T05:31:25.615Z,99.90
2023-05-14T05:33:53.501Z,99.90
2023-05-14T05:36:21.434Z,99.90
2023-05-14T05:38:51.273Z,99.90
2023-05-14T05:41:19.123Z,99.90
2023-05-14T05:43:46.972Z,99.90
2023-05-14T05:46:14.943Z,99.90
2023-05-14T05:48:42.850Z,99.90
2023-05-14T05:51:11.062Z,99.90
2023-05-14T05:53:38.949Z,99.90
2023-05-14T05:56:08.725Z,99.90
2023-05-14T05:58:37.104Z,99.90
2023-05-14T06:01:05.013Z,99.90
2023-05-14T06:03:33.055Z,99.90
2023-05-14T06:06:01.022Z,99.90
2023-05-14T06:08:28.880Z,99.90
2023-05-14T06:10:56.757Z,99.40
2023-05-14T06:13:25.983Z,99.30
2023-05-14T06:15:53.852Z,98.10
2023-05-14T06:18:21.755Z,98.50
2023-05-14T06:20:49.699Z,98.50
2023-05-14T06:23:17.528Z,99.30
2023-05-14T06:25:45.434Z,99.10
2023-05-14T06:28:13.344Z,97.10
2023-05-14T06:30:42.627Z,98.80
2023-05-14T06:33:10.688Z,97.30
2023-05-14T06:38:06.487Z,95.30
2023-05-14T06:40:34.374Z,94.40
2023-05-14T06:43:02.289Z,95.10
2023-05-14T06:45:33.045Z,95.40
2023-05-14T06:48:02.566Z,95.00
2023-05-14T06:50:30.902Z,94.30
2023-05-14T06:52:58.807Z,94.70
2023-05-14T06:55:26.646Z,94.20
2023-05-14T06:57:54.504Z,93.20
2023-05-14T07:00:23.546Z,93.90
2023-05-14T07:02:51.667Z,93.40
2023-05-14T07:05:20.985Z,92.60
2023-05-14T07:07:49.067Z,92.10
2023-05-14T07:10:16.982Z,92.10
2023-05-14T07:12:45.228Z,93.20
2023-05-14T07:15:13.295Z,94.40
2023-05-14T07:17:41.961Z,94.20
2023-05-14T07:20:10.885Z,92.20
2023-05-14T07:22:40.081Z,93.70
2023-05-14T07:25:08.535Z,90.80
2023-05-14T07:27:36.380Z,91.40
2023-05-14T07:30:04.593Z,92.60
2023-05-14T07:32:32.675Z,88.80
2023-05-14T07:35:00.663Z,88.90
2023-05-14T07:37:28.869Z,84.50
2023-05-14T07:39:58.375Z,86.50
2023-05-14T07:42:35.987Z,85.10
2023-05-14T07:45:05.312Z,85.30
2023-05-14T07:47:33.782Z,82.50
2023-05-14T07:50:01.720Z,81.80
2023-05-14T07:52:30.030Z,82.20
2023-05-14T07:54:59.993Z,80.30
2023-05-14T07:57:28.077Z,81.10
2023-05-14T07:59:56.304Z,78.60
2023-05-14T08:02:24.270Z,78.90
2023-05-14T08:04:52.206Z,79.20
2023-05-14T08:07:20.095Z,81.90
2023-05-14T08:09:47.985Z,77.60
2023-05-14T08:12:17.569Z,77.80
2023-05-14T08:14:46.031Z,77.60
2023-05-14T08:17:14.009Z,78.20
2023-05-14T08:19:42.047Z,80.50
2023-05-14T08:22:10.001Z,80.70
2023-05-14T08:24:37.887Z,79.50
2023-05-14T08:27:06.545Z,80.80
2023-05-14T08:29:35.915Z,80.70
2023-05-14T08:32:15.439Z,80.40
2023-05-14T08:34:50.798Z,79.60
2023-05-14T08:37:18.852Z,79.10
2023-05-14T08:39:46.832Z,78.90
2023-05-14T08:42:16.612Z,78.60
2023-05-14T08:44:50.239Z,79.20
2023-05-14T08:47:22.339Z,79.70
2023-05-14T08:49:58.868Z,80.40
2023-05-14T08:52:27.215Z,78.10
2023-05-14T08:54:56.760Z,77.70
2023-05-14T08:57:26.493Z,77.70
2023-05-14T08:59:55.797Z,77.10
2023-05-14T09:02:26.075Z,76.70
2023-05-14T09:04:57.699Z,80.80
2023-05-14T09:07:26.089Z,78.90
2023-05-14T09:09:54.822Z,78.50
2023-05-14T09:12:23.676Z,81.60
2023-05-14T09:14:52.117Z,79.50
2023-05-14T09:17:21.637Z,81.70
2023-05-14T09:19:52.797Z,80.00
2023-05-14T09:22:22.352Z,77.00
2023-05-14T09:25:04.910Z,73.80
2023-05-14T09:27:34.281Z,74.20
2023-05-14T09:30:10.791Z,74.10
2023-05-14T09:32:45.993Z,73.20
2023-05-14T09:35:19.027Z,78.30
2023-05-14T09:37:48.469Z,76.90
2023-05-14T09:40:17.617Z,77.60
2023-05-14T09:42:45.922Z,78.90
2023-05-14T09:45:13.838Z,74.80
2023-05-14T09:47:45.019Z,70.00
2023-05-14T09:50:13.382Z,69.50
2023-05-14T09:52:41.362Z,68.60
2023-05-14T09:55:10.103Z,67.40
2023-05-14T09:57:38.080Z,70.60
2023-05-14T10:00:08.813Z,70.60
2023-05-14T10:02:40.571Z,66.30
2023-05-14T10:05:11.365Z,67.30
2023-05-14T10:07:43.426Z,71.50
2023-05-14T10:10:16.379Z,66.50
2023-05-14T10:12:47.482Z,68.20
2023-05-14T10:15:22.813Z,63.00
2023-05-14T10:17:56.809Z,65.10
2023-05-14T10:20:27.790Z,62.50
2023-05-14T10:22:55.791Z,64.50
2023-05-14T10:25:24.595Z,64.10
2023-05-14T10:27:52.575Z,62.10
2023-05-14T10:30:23.957Z,62.50
2023-05-14T10:33:07.206Z,59.00
2023-05-14T10:35:53.004Z,57.70
2023-05-14T10:38:24.440Z,62.00
2023-05-14T10:40:54.185Z,65.90
2023-05-14T10:43:23.650Z,70.20
2023-05-14T10:45:52.450Z,72.90
2023-05-14T10:48:23.581Z,71.10
2023-05-14T10:50:54.391Z,72.10
2023-05-14T10:53:31.086Z,71.00
2023-05-14T10:55:59.286Z,70.20
2023-05-14T10:58:29.834Z,69.80
2023-05-14T11:00:57.948Z,66.50
2023-05-14T11:03:29.996Z,64.00
2023-05-14T11:06:00.997Z,63.30
2023-05-14T11:08:29.563Z,63.00
2023-05-14T11:10:58.613Z,62.90
2023-05-14T11:13:27.735Z,61.40
2023-05-14T11:15:56.682Z,60.00
2023-05-14T11:18:28.726Z,60.20
2023-05-14T11:21:01.493Z,60.00
2023-05-14T11:23:30.272Z,60.90
2023-05-14T11:25:58.263Z,56.70
2023-05-14T11:28:27.807Z,54.20
2023-05-14T11:30:55.693Z,56.40
2023-05-14T11:33:23.552Z,60.70
2023-05-14T11:35:52.025Z,63.40
2023-05-14T11:38:22.376Z,64.20
2023-05-14T11:40:54.096Z,62.80
2023-05-14T11:43:23.576Z,72.50
2023-05-14T11:45:52.553Z,62.30
2023-05-14T11:48:20.649Z,61.40
2023-05-14T11:50:49.751Z,70.80
2023-05-14T11:53:19.230Z,70.20
2023-05-14T11:55:48.603Z,70.00
2023-05-14T11:58:18.786Z,74.30
2023-05-14T12:00:47.401Z,69.90
2023-05-14T12:03:15.633Z,70.10
2023-05-14T12:05:56.640Z,72.60
2023-05-14T12:08:28.223Z,67.60
2023-05-14T12:10:59.160Z,64.20
2023-05-14T12:13:27.728Z,64.40
2023-05-14T12:15:57.492Z,60.80
2023-05-14T12:18:26.330Z,63.30
2023-05-14T12:20:54.305Z,57.90
2023-05-14T12:23:26.743Z,52.80
2023-05-14T12:25:54.717Z,56.60
2023-05-14T12:28:24.770Z,57.60
2023-05-14T12:30:57.771Z,60.70
2023-05-14T12:33:26.556Z,60.70
2023-05-14T12:35:58.916Z,59.20
2023-05-14T12:38:28.746Z,58.40
2023-05-14T12:40:56.865Z,57.40
2023-05-14T12:43:31.457Z,55.30
2023-05-14T12:45:59.449Z,55.70
2023-05-14T12:48:27.453Z,55.20
2023-05-14T12:50:55.402Z,52.70
2023-05-14T12:53:23.354Z,55.60
2023-05-14T12:55:51.392Z,55.80
2023-05-14T12:58:19.373Z,57.00
2023-05-14T13:00:48.755Z,55.60
2023-05-14T13:03:16.794Z,54.60
2023-05-14T13:05:44.948Z,55.50
2023-05-14T13:08:14.816Z,59.70
2023-05-14T13:10:42.825Z,63.40
2023-05-14T13:13:10.812Z,66.80
2023-05-14T13:15:39.312Z,66.70
2023-05-14T13:18:08.891Z,69.00
2023-05-14T13:20:37.069Z,67.30
2023-05-14T13:23:05.067Z,66.70
2023-05-14T13:25:33.160Z,66.00
2023-05-14T13:28:01.189Z,65.90
2023-05-14T13:30:29.210Z,65.50
2023-05-14T13:32:57.252Z,61.50
2023-05-14T13:35:26.857Z,59.70
2023-05-14T13:37:55.012Z,60.70
2023-05-14T13:40:23.044Z,61.30
2023-05-14T13:42:50.967Z,60.80
2023-05-14T13:45:18.990Z,62.60
2023-05-14T13:47:48.248Z,64.40
2023-05-14T13:50:17.444Z,63.10
2023-05-14T13:52:46.733Z,62.90
2023-05-14T13:55:14.626Z,62.50
2023-05-14T13:57:43.049Z,61.50
2023-05-14T14:00:11.923Z,60.50
2023-05-14T14:02:39.883Z,60.20
2023-05-14T14:05:08.709Z,59.80
2023-05-14T14:07:36.624Z,60.00
2023-05-14T14:10:06.758Z,57.60
2023-05-14T14:12:34.871Z,58.10
2023-05-14T14:15:03.995Z,57.60
2023-05-14T14:17:33.952Z,57.60
2023-05-14T14:20:01.946Z,57.50
2023-05-14T14:22:29.852Z,58.10
2023-05-14T14:24:57.769Z,57.00
2023-05-14T14:27:27.003Z,55.00
2023-05-14T14:29:56.698Z,52.10
2023-05-14T14:32:24.745Z,50.20
2023-05-14T14:34:52.638Z,49.80
2023-05-14T14:37:21.272Z,50.20
2023-05-14T14:39:50.970Z,52.70
2023-05-14T14:42:18.889Z,51.40
2023-05-14T14:44:48.170Z,51.60
2023-05-14T14:47:16.089Z,48.80
2023-05-14T14:49:44.068Z,48.40
2023-05-14T14:52:12.019Z,47.80
2023-05-14T14:54:39.946Z,46.80
2023-05-14T14:57:07.828Z,47.20
2023-05-14T14:59:36.450Z,48.30
2023-05-14T15:02:06.414Z,50.80
2023-05-14T15:04:34.712Z,50.60
2023-05-14T15:07:02.625Z,52.90
2023-05-14T15:09:31.104Z,53.50
2023-05-14T15:11:59.134Z,55.80
2023-05-14T15:14:27.046Z,56.90
2023-05-14T15:16:55.078Z,67.00
2023-05-14T15:19:24.255Z,66.00
2023-05-14T15:21:52.213Z,65.70
2023-05-14T15:24:20.056Z,71.00
2023-05-14T15:26:48.032Z,71.00
2023-05-14T15:29:15.900Z,68.70
2023-05-14T15:31:45.730Z,67.50
2023-05-14T15:34:17.268Z,66.70
2023-05-14T15:36:46.517Z,66.30
2023-05-14T15:39:14.480Z,65.60
2023-05-14T15:41:42.425Z,65.20
2023-05-14T15:44:10.479Z,65.20
2023-05-14T15:46:38.987Z,65.40
2023-05-14T15:49:06.849Z,62.00
2023-05-14T15:51:35.552Z,63.30
2023-05-14T15:54:05.014Z,60.10
2023-05-14T15:56:32.950Z,58.20
2023-05-14T15:59:00.830Z,58.70
2023-05-14T16:01:28.837Z,59.50
2023-05-14T16:03:56.820Z,61.50
2023-05-14T16:06:24.802Z,61.40
2023-05-14T16:08:52.666Z,63.50
2023-05-14T16:11:22.287Z,62.10
2023-05-14T16:13:50.175Z,55.40
2023-05-14T16:16:18.143Z,53.30
2023-05-14T16:18:46.205Z,52.40
2023-05-14T16:21:14.142Z,52.70
2023-05-14T16:23:42.013Z,52.80
2023-05-14T16:26:09.991Z,52.20
2023-05-14T16:28:41.156Z,51.80
2023-05-14T16:31:09.104Z,51.70
2023-05-14T16:33:37.033Z,51.90
2023-05-14T16:36:05.924Z,52.00
2023-05-14T16:38:34.506Z,51.10
2023-05-14T16:41:03.859Z,51.20
2023-05-14T16:43:31.700Z,51.70
2023-05-14T16:46:03.974Z,52.20
2023-05-14T16:48:31.888Z,50.60
2023-05-14T16:50:59.893Z,52.10
2023-05-14T16:53:27.818Z,51.40
2023-05-14T16:55:55.745Z,54.90
2023-05-14T16:58:23.705Z,56.50
2023-05-14T17:00:51.622Z,58.20
2023-05-14T17:03:21.519Z,60.00
2023-05-14T17:05:49.473Z,62.10
2023-05-14T17:08:17.310Z,62.50
2023-05-14T17:10:45.180Z,63.00
2023-05-14T17:13:13.056Z,62.10
2023-05-14T17:15:42.408Z,64.10
2023-05-14T17:18:11.931Z,64.80
2023-05-14T17:20:41.325Z,65.40
2023-05-14T17:23:09.346Z,65.20
2023-05-14T17:25:37.364Z,64.20
2023-05-14T17:28:05.549Z,64.40
2023-05-14T17:30:33.520Z,64.10
2023-05-14T17:33:01.536Z,63.30
2023-05-14T17:35:29.566Z,60.20
2023-05-14T17:38:00.471Z,61.30
2023-05-14T17:40:28.596Z,60.00
2023-05-14T17:42:56.530Z,60.60
2023-05-14T17:45:24.723Z,60.40
2023-05-14T17:47:53.002Z,60.80
2023-05-14T17:50:21.109Z,60.50
2023-05-14T17:52:49.047Z,61.30
2023-05-14T17:55:19.181Z,62.70
2023-05-14T17:57:47.505Z,63.30
2023-05-14T18:00:15.937Z,64.50
2023-05-14T18:02:43.827Z,66.00
2023-05-14T18:05:11.926Z,67.00
2023-05-14T18:07:40.016Z,67.90
2023-05-14T18:10:09.137Z,68.20
2023-05-14T18:12:38.458Z,68.80
2023-05-14T18:15:07.353Z,68.90
2023-05-14T18:17:35.352Z,69.20
2023-05-14T18:20:03.245Z,69.90
2023-05-14T18:22:31.183Z,69.60
2023-05-14T18:24:59.021Z,69.80
2023-05-14T18:27:27.137Z,70.00
2023-05-14T18:29:56.437Z,70.50
2023-05-14T18:32:24.381Z,70.50
2023-05-14T18:34:52.294Z,70.80
2023-05-14T18:37:20.297Z,71.30
2023-05-14T18:39:48.166Z,72.20
2023-05-14T18:42:16.615Z,74.20
2023-05-14T18:44:44.962Z,75.70
2023-05-14T18:47:14.264Z,80.10
2023-05-14T18:49:42.458Z,82.30
2023-05-14T18:52:10.390Z,85.50
2023-05-14T18:54:38.519Z,85.90
2023-05-14T18:57:06.945Z,90.00
2023-05-14T18:59:34.791Z,90.50
2023-05-14T19:02:02.802Z,92.60
2023-05-14T19:04:33.405Z,93.70
2023-05-14T19:07:01.639Z,94.60
2023-05-14T19:09:29.607Z,95.80
2023-05-14T19:11:57.539Z,96.60
2023-05-14T19:14:25.458Z,97.20
2023-05-14T19:16:53.394Z,97.70
2023-05-14T19:19:21.586Z,98.50
2023-05-14T19:21:51.028Z,98.50
2023-05-14T19:24:18.957Z,98.90
2023-05-14T19:26:46.919Z,98.30
2023-05-14T19:29:14.858Z,98.70
2023-05-14T19:31:42.774Z,99.60
2023-05-14T19:34:10.789Z,99.90
2023-05-14T19:36:38.694Z,99.90
2023-05-14T19:39:07.907Z,99.90
2023-05-14T19:41:35.753Z,98.90
2023-05-14T19:44:03.639Z,98.40
2023-05-14T19:46:31.626Z,98.30
2023-05-14T19:48:59.601Z,97.70
2023-05-14T19:51:27.481Z,96.50
2023-05-14T19:53:55.507Z,97.00
2023-05-14T19:56:25.809Z,96.50
2023-05-14T19:58:55.097Z,96.90
2023-05-14T20:01:23.084Z,98.10
2023-05-14T20:03:51.026Z,99.00
2023-05-14T20:06:18.907Z,99.90
2023-05-14T20:08:46.916Z,97.90
2023-05-14T20:11:15.734Z,96.10
2023-05-14T20:13:45.002Z,96.50
2023-05-14T20:16:13.597Z,97.30
2023-05-14T20:18:41.689Z,97.50
2023-05-14T20:21:09.637Z,97.50
2023-05-14T20:23:37.661Z,98.40
2023-05-14T20:26:05.686Z,98.80
2023-05-14T20:28:33.642Z,99.60
2023-05-14T20:31:04.050Z,99.90
2023-05-14T20:33:32.079Z,99.80
2023-05-14T20:36:00.294Z,99.70
2023-05-14T20:38:29.343Z,99.80
2023-05-14T20:40:57.498Z,99.90
2023-05-14T20:43:25.400Z,99.80
2023-05-14T20:45:53.423Z,99.90
2023-05-14T20:48:22.678Z,99.90
2023-05-14T20:50:50.667Z,99.90
2023-05-14T20:53:18.532Z,99.90
2023-05-14T20:55:46.426Z,99.90
2023-05-14T20:58:14.307Z,99.90
2023-05-14T21:00:43.259Z,99.90
2023-05-14T21:03:11.213Z,99.90
2023-05-14T21:05:41.512Z,99.90
2023-05-14T21:08:09.444Z,99.90
2023-05-14T21:10:37.348Z,99.90
2023-05-14T21:13:05.339Z,99.90
2023-05-14T21:15:33.289Z,99.90
2023-05-14T21:18:01.262Z,99.90
2023-05-14T21:20:29.232Z,99.90
2023-05-14T21:22:58.540Z,99.90
2023-05-14T21:25:26.903Z,99.90
2023-05-14T21:27:55.207Z,99.90
2023-05-14T21:30:23.145Z,99.90
2023-05-14T21:32:51.018Z,99.90
2023-05-14T21:35:18.911Z,99.90
2023-05-14T21:37:46.735Z,99.90
2023-05-14T21:40:16.301Z,99.90
2023-05-14T21:42:44.179Z,99.90
2023-05-14T21:45:12.449Z,99.90
2023-05-14T21:47:40.512Z,99.90
2023-05-14T21:50:09.357Z,99.90
2023-05-14T21:52:38.133Z,99.90
2023-05-14T21:55:06.838Z,99.90
2023-05-14T21:57:36.053Z,99.90
2023-05-14T22:00:06.318Z,99.90
2023-05-14T22:02:34.268Z,99.90
2023-05-14T22:05:02.282Z,99.90
2023-05-14T22:07:31.335Z,99.90
2023-05-14T22:09:59.491Z,99.90
2023-05-14T22:12:27.405Z,99.90
2023-05-14T22:14:56.633Z,99.90
2023-05-14T22:17:24.546Z,99.90
2023-05-14T22:19:52.481Z,99.90
2023-05-14T22:22:20.681Z,99.90
2023-05-14T22:24:48.533Z,99.90
2023-05-14T22:27:16.383Z,99.90
2023-05-14T22:29:44.253Z,99.90
2023-05-14T22:32:13.537Z,99.90
2023-05-14T22:34:41.537Z,99.90
2023-05-14T22:37:09.434Z,99.90
2023-05-14T22:39:37.336Z,99.90
2023-05-14T22:42:05.699Z,99.90
2023-05-14T22:44:33.615Z,99.90
2023-05-14T22:47:01.547Z,99.90
2023-05-14T22:49:30.829Z,99.90
2023-05-14T22:51:58.824Z,99.90
2023-05-14T22:54:26.815Z,99.90
2023-05-14T22:56:54.723Z,99.90
2023-05-14T22:59:23.716Z,99.90
2023-05-14T23:01:52.052Z,99.90
2023-05-14T23:04:20.031Z,99.90
2023-05-14T23:06:49.452Z,99.90
2023-05-14T23:09:17.299Z,99.90
2023-05-14T23:11:46.056Z,99.90
2023-05-14T23:14:13.913Z,99.90
2023-05-14T23:16:42.011Z,99.90
2023-05-14T23:19:10.167Z,99.90
2023-05-14T23:21:38.124Z,99.90
2023-05-14T23:24:08.147Z,99.90
2023-05-14T23:26:36.076Z,99.90
2023-05-14T23:29:03.941Z,99.90
2023-05-14T23:31:32.219Z,99.90
2023-05-14T23:34:00.224Z,99.90
2023-05-14T23:36:31.257Z,99.90
2023-05-14T23:38:59.460Z,99.90
2023-05-14T23:41:28.676Z,99.90
2023-05-14T23:43:56.543Z,99.90
2023-05-14T23:46:24.782Z,99.90
2023-05-14T23:48:56.932Z,99.90
2023-05-14T23:51:24.949Z,99.90
2023-05-14T23:53:56.377Z,99.90
2023-05-14T23:56:24.416Z,99.90
2023-05-14T23:58:54.165Z,99.90
